الصفحة الرئيسية
METAR-TAF:

METAR-TAF

مطار :

Nogales, أريزونا, الولايات المتحدة

دائرة عرض: 31-25-15N, خط طول: 110-50-45W, ارتفاع: 1198 متر

مراقبة الطقس الحالي

تاريخ ووقت الإصدار 48 دقيقة قبل الساعة 06:54UTC
ريح 4 عقدة من الجنوب
درجة الحرارة 11°درجة مئوية
الرطوبة 30%
ضغط 1018 hPa
الرؤية: 16.1 كم
سماء صافية

METAR: KOLS 210654Z AUTO 18004KT 10SM CLR 11/M06 A3007 RMK AO2 SLP135 T01111061 402560056

زمن: 00:42 (07:42 UTC)

توقعات

تاريخ ووقت الإصدار 2ساعات و 22 دقيقة قبل الساعة 05:20UTC
التوقعات صالحة من21 الساعة 06 UTC إلى 22 الساعة 06 UTC
ريح 4 عقدةمن اتجاهات متغيرة
الرؤية: 10 كم
غيوم متفرقة على ارتفاع 20000 قدم
من 21 الساعة 1700 UTC
ريح 9 عقدة من الجنوب/الجنوب الغربي
الرؤية: 10 كم
غيوم مفككة على ارتفاع 20000 قدم
من 21 الساعة 2000 UTC
ريح 10 عقدة من الغرب/الجنوب الغربي تتزايد حتى 18 عقدة
الرؤية: 10 كم
ملبد بالغيوم على ارتفاع 20000 قدم
من 22 الساعة 0300 UTC
ريح 5 عقدة من الجنوب/الجنوب الغربي
الرؤية: 10 كم
غيوم مفككة على ارتفاع 20000 قدم

TAF: KOLS 210520Z 2106/2206 VRB04KT P6SM SCT200 FM211700 20009KT P6SM BKN200 FM212000 24010G18KT P6SM OVC200 FM220300 20005KT P6SM BKN200

أرصاد الطقس والتوقعات من أكثر من 4000 مطار (تقارير الطقس للمطار METAR والتنبؤ بالطقس بالمطارTAF).

المحطات المتاحة هي النقط الصفراء والحمراء على الخريطة.

حرك المؤشر فوق النقطة لمعرفة اسم المحطة.

ثم انقر لمعرفة أرصاد وتوقعات الطقس.

لتغيير الخارطة: اضغط على الأزرار الخضراء مع رمز الصليب الأسود للتكبير. على الزر الأخضر مع شرطة للتصغير، أو على الأسهم الخضراء للخرائط المجاورة.


METAR-TAF: